Rockbridge, Missouri
Current Conditions -  °F | °C
As of 9:53 PM on Wednesday 22 Oct 2014 (Local Time) from KUNO Reporting Station
Clear Clear  
Wind Chill: 44°   Ceiling: Unl
Heat Index: 44°   Visibility: 10mi
Dew Point: 40°   Wind: 0mph
Humidity: 85%   Direction: NA
Pressure: 30.23"   Gusts: NA
Location:  36.79°N, 92.41°W
Report Text: KUNO 230253Z AUTO 00000KT 10SM CLR 07/04 A3023 RMK AO2 SLP237 T00670044 51012
Loading
Personal Weather Stations






























Interactive Weather Map
Tropical Storm Tracking
New forecast layout! Learn more

10-Day Weather Forecast

Advertisements
Track Severe Weather on mobile